createdAt,value
2018-02-23T00:00:39.870Z,0.00
2018-02-23T00:01:39.922Z,0.00
2018-02-23T00:02:39.900Z,0.00
2018-02-23T00:03:39.920Z,0.00
2018-02-23T00:04:39.922Z,0.00
2018-02-23T00:05:39.931Z,0.00
2018-02-23T00:06:39.952Z,0.00
2018-02-23T00:07:39.955Z,0.00
2018-02-23T00:08:39.999Z,0.00
2018-02-23T00:09:39.976Z,0.00
2018-02-23T00:10:39.993Z,0.00
2018-02-23T00:11:40.001Z,0.00
2018-02-23T00:12:40.015Z,0.00
2018-02-23T00:13:40.035Z,0.00
2018-02-23T00:14:40.074Z,0.00
2018-02-23T00:15:40.059Z,0.00
2018-02-23T00:16:40.070Z,0.00
2018-02-23T00:17:40.073Z,0.00
2018-02-23T00:18:40.088Z,0.00
2018-02-23T00:19:40.103Z,0.00
2018-02-23T00:20:40.148Z,0.00
2018-02-23T00:21:40.119Z,0.00
2018-02-23T00:22:40.132Z,0.00
2018-02-23T00:23:40.144Z,0.00
2018-02-23T00:24:40.161Z,0.00
2018-02-23T00:25:40.201Z,0.00
2018-02-23T00:26:40.184Z,0.00
2018-02-23T00:27:40.197Z,0.00
2018-02-23T00:28:40.206Z,0.00
2018-02-23T00:29:40.218Z,0.00
2018-02-23T00:30:40.234Z,0.00
2018-02-23T00:31:40.261Z,0.00
2018-02-23T00:32:40.257Z,0.00
2018-02-23T00:33:40.306Z,0.00
2018-02-23T00:34:40.278Z,0.00
2018-02-23T00:35:40.302Z,0.00
2018-02-23T00:36:40.313Z,0.00
2018-02-23T00:37:40.318Z,0.00
2018-02-23T00:38:40.365Z,0.00
2018-02-23T00:39:40.343Z,0.00
2018-02-23T00:40:40.352Z,0.00
2018-02-23T00:41:40.378Z,0.00
2018-02-23T00:42:40.386Z,0.00
2018-02-23T00:43:40.524Z,0.00
2018-02-23T00:44:40.424Z,0.00
2018-02-23T00:45:40.429Z,0.00
2018-02-23T00:46:40.465Z,0.00
2018-02-23T00:47:40.461Z,0.00
2018-02-23T00:48:41.298Z,0.00
2018-02-23T00:49:40.466Z,0.00
2018-02-23T00:50:40.481Z,0.00
2018-02-23T00:51:40.500Z,0.00
2018-02-23T00:52:40.529Z,0.00
2018-02-23T00:53:40.519Z,0.00
2018-02-23T00:54:40.533Z,0.00
2018-02-23T00:55:40.554Z,0.00
2018-02-23T00:56:40.548Z,0.00
2018-02-23T00:57:40.559Z,0.00
2018-02-23T00:58:40.573Z,0.00
2018-02-23T00:59:40.590Z,0.00
2018-02-23T01:00:40.623Z,0.00
2018-02-23T01:01:40.604Z,0.00
2018-02-23T01:02:40.620Z,0.00
2018-02-23T01:03:40.635Z,0.00
2018-02-23T01:04:40.640Z,0.00
2018-02-23T01:05:40.664Z,0.00
2018-02-23T01:06:40.695Z,0.00
2018-02-23T01:07:40.681Z,0.00
2018-02-23T01:08:40.688Z,0.00
2018-02-23T01:09:40.702Z,0.00
2018-02-23T01:10:40.713Z,0.00
2018-02-23T01:11:40.760Z,0.00
2018-02-23T01:12:40.738Z,0.00
2018-02-23T01:13:40.837Z,0.00
2018-02-23T01:14:40.768Z,0.00
2018-02-23T01:15:40.776Z,0.00
2018-02-23T01:16:40.837Z,0.00
2018-02-23T01:17:41.806Z,0.00
2018-02-23T01:18:40.814Z,0.00
2018-02-23T01:19:40.857Z,0.00
2018-02-23T01:20:40.858Z,0.00
2018-02-23T01:21:40.869Z,0.00
2018-02-23T01:22:40.883Z,0.00
2018-02-23T01:23:40.875Z,0.00
2018-02-23T01:24:40.880Z,0.00
2018-02-23T01:25:40.908Z,0.00
2018-02-23T01:26:40.956Z,0.00
2018-02-23T01:27:40.919Z,0.00
2018-02-23T01:28:40.926Z,0.00
2018-02-23T01:29:40.947Z,0.00
2018-02-23T01:30:40.954Z,0.00
2018-02-23T01:31:40.971Z,0.00
2018-02-23T01:32:41.018Z,0.00
2018-02-23T01:33:40.990Z,0.00
2018-02-23T01:34:41.013Z,0.00
2018-02-23T01:35:41.057Z,0.00
2018-02-23T01:36:41.024Z,0.00
2018-02-23T01:37:41.056Z,0.00
2018-02-23T01:38:41.055Z,0.00
2018-02-23T01:39:41.059Z,0.00
2018-02-23T01:40:41.106Z,0.00
2018-02-23T01:41:41.091Z,0.00
2018-02-23T01:42:41.106Z,0.00
2018-02-23T01:43:41.120Z,0.00
2018-02-23T01:44:41.125Z,0.00
2018-02-23T01:45:41.153Z,0.00
2018-02-23T01:46:41.147Z,0.00
2018-02-23T01:47:41.163Z,0.00
2018-02-23T01:48:41.169Z,0.00
2018-02-23T01:49:41.178Z,0.00
2018-02-23T01:50:41.214Z,0.00
2018-02-23T01:51:41.199Z,0.00
2018-02-23T01:52:41.215Z,0.00
2018-02-23T01:53:41.233Z,0.00
2018-02-23T01:54:41.241Z,0.00
2018-02-23T01:55:41.291Z,0.00
2018-02-23T01:56:41.263Z,0.00
2018-02-23T01:57:41.277Z,0.00
2018-02-23T01:58:41.287Z,0.00
2018-02-23T01:59:41.302Z,0.00
2018-02-23T02:00:41.334Z,0.00
2018-02-23T02:01:41.357Z,0.00
2018-02-23T02:02:41.336Z,0.00
2018-02-23T02:03:41.345Z,0.00
2018-02-23T02:04:41.363Z,0.00
2018-02-23T02:05:41.374Z,0.00
2018-02-23T02:06:41.395Z,0.00
2018-02-23T02:07:41.443Z,0.00
2018-02-23T02:08:41.445Z,0.00
2018-02-23T02:12:40.978Z,0.00
2018-02-23T02:16:06.601Z,0.00
2018-02-23T02:17:06.108Z,0.00
2018-02-23T02:17:46.562Z,0.00
2018-02-23T02:18:45.998Z,0.00
2018-02-23T02:22:51.557Z,0.00
2018-02-23T02:27:49.528Z,0.00
2018-02-23T02:28:46.655Z,0.00
2018-02-23T02:29:46.660Z,0.00
2018-02-23T02:30:46.675Z,0.00
2018-02-23T02:31:46.684Z,0.00
2018-02-23T02:32:46.692Z,0.00
2018-02-23T02:33:46.742Z,0.00
2018-02-23T02:34:46.712Z,0.00
2018-02-23T02:35:46.729Z,0.00
2018-02-23T02:36:46.739Z,0.00
2018-02-23T02:37:46.748Z,0.00
2018-02-23T02:38:46.770Z,0.00
2018-02-23T02:39:46.816Z,0.00
2018-02-23T02:40:46.792Z,0.00
2018-02-23T02:41:46.795Z,0.00
2018-02-23T02:42:46.811Z,0.00
2018-02-23T02:43:46.827Z,0.00
2018-02-23T02:44:46.853Z,0.00
2018-02-23T02:45:46.845Z,0.00
2018-02-23T02:46:46.860Z,0.00
2018-02-23T02:47:46.868Z,0.00
2018-02-23T02:48:46.878Z,0.00
2018-02-23T02:49:46.897Z,0.00
2018-02-23T02:50:46.921Z,0.00
2018-02-23T02:51:46.913Z,0.00
2018-02-23T02:52:46.935Z,0.00
2018-02-23T02:53:46.939Z,0.00
2018-02-23T02:54:46.991Z,0.00
2018-02-23T02:55:46.986Z,0.00
2018-02-23T02:56:46.973Z,0.00
2018-02-23T02:57:47.004Z,0.00
2018-02-23T02:58:47.042Z,0.00
2018-02-23T02:59:47.010Z,0.00
2018-02-23T03:00:47.022Z,0.00
2018-02-23T03:01:47.038Z,0.00
2018-02-23T03:02:47.051Z,0.00
2018-02-23T03:03:47.087Z,0.00
2018-02-23T03:04:47.073Z,0.00
2018-02-23T03:05:47.101Z,0.00
2018-02-23T03:06:47.127Z,0.00
2018-02-23T03:07:47.106Z,0.00
2018-02-23T03:08:47.118Z,0.00
2018-02-23T03:09:47.126Z,0.00
2018-02-23T03:10:47.145Z,0.00
2018-02-23T03:11:47.197Z,0.00
2018-02-23T03:12:47.167Z,0.00
2018-02-23T03:13:47.186Z,0.00
2018-02-23T03:14:47.200Z,0.00
2018-02-23T03:15:47.201Z,0.00
2018-02-23T03:16:47.217Z,0.00
2018-02-23T03:17:47.242Z,0.00
2018-02-23T03:18:47.241Z,0.00
2018-02-23T03:19:47.246Z,0.00
2018-02-23T03:20:47.259Z,0.00
2018-02-23T03:21:47.277Z,0.00
2018-02-23T03:22:47.310Z,0.00
2018-02-23T03:23:47.300Z,0.00
2018-02-23T03:24:47.308Z,0.00
2018-02-23T03:25:47.317Z,0.00
2018-02-23T03:26:47.365Z,0.00
2018-02-23T03:27:47.362Z,0.00
2018-02-23T03:28:47.353Z,0.00
2018-02-23T03:29:47.366Z,0.00
2018-02-23T03:30:47.401Z,0.00
2018-02-23T03:31:47.391Z,0.00
2018-02-23T03:32:47.429Z,0.00
2018-02-23T03:33:47.417Z,0.00
2018-02-23T03:34:47.430Z,0.00
2018-02-23T03:35:47.460Z,0.00
2018-02-23T03:36:47.495Z,0.00
2018-02-23T03:37:47.461Z,0.00
2018-02-23T03:38:47.478Z,0.00
2018-02-23T03:39:47.482Z,0.00
2018-02-23T03:40:48.306Z,0.00
2018-02-23T03:41:47.510Z,0.00
2018-02-23T03:42:47.573Z,0.00
2018-02-23T03:43:47.540Z,0.00
2018-02-23T03:44:47.554Z,0.00
2018-02-23T03:45:48.306Z,0.00
2018-02-23T03:46:47.573Z,0.00
2018-02-23T03:47:47.589Z,0.00
2018-02-23T03:48:47.636Z,0.00
2018-02-23T03:49:47.793Z,0.00
2018-02-23T03:50:47.620Z,0.00
2018-02-23T03:51:47.637Z,0.00
2018-02-23T03:52:47.664Z,0.00
2018-02-23T03:53:47.680Z,0.00
2018-02-23T03:54:47.710Z,0.00
2018-02-23T03:55:47.688Z,0.00
2018-02-23T03:56:47.692Z,0.00
2018-02-23T03:57:47.705Z,0.00
2018-02-23T03:58:47.739Z,0.00
2018-02-23T03:59:47.733Z,0.00
2018-02-23T04:00:48.305Z,0.00
2018-02-23T04:01:47.750Z,0.00
2018-02-23T04:02:47.766Z,0.00
2018-02-23T04:03:47.780Z,0.00
2018-02-23T04:04:47.788Z,0.00
2018-02-23T04:05:47.829Z,0.00
2018-02-23T04:06:47.817Z,0.00
2018-02-23T04:07:47.819Z,0.00
2018-02-23T04:08:47.847Z,0.00
2018-02-23T04:09:47.850Z,0.00
2018-02-23T04:10:47.894Z,0.00
2018-02-23T04:11:47.870Z,0.00
2018-02-23T04:12:47.882Z,0.00
2018-02-23T04:13:47.891Z,0.00
2018-02-23T04:14:47.908Z,0.00
2018-02-23T04:15:47.935Z,0.00
2018-02-23T04:16:47.947Z,0.00
2018-02-23T04:17:47.942Z,0.00
2018-02-23T04:18:47.955Z,0.00
2018-02-23T04:19:47.990Z,0.00
2018-02-23T04:20:47.979Z,0.00
2018-02-23T04:21:47.992Z,0.00
2018-02-23T04:22:48.021Z,0.00
2018-02-23T04:23:48.014Z,0.00
2018-02-23T04:24:48.032Z,0.00
2018-02-23T04:25:48.045Z,0.00
2018-02-23T04:26:48.059Z,0.00
2018-02-23T04:27:48.085Z,0.00
2018-02-23T04:28:48.074Z,0.00
2018-02-23T04:29:48.089Z,0.00
2018-02-23T04:30:48.169Z,0.00
2018-02-23T04:31:48.113Z,0.00
2018-02-23T04:32:48.126Z,0.00
2018-02-23T04:33:48.134Z,0.00
2018-02-23T04:34:48.171Z,0.00
2018-02-23T04:35:48.160Z,0.00
2018-02-23T04:36:48.174Z,0.00
2018-02-23T04:37:48.185Z,0.00
2018-02-23T04:38:48.198Z,0.00
2018-02-23T04:39:48.229Z,0.00
2018-02-23T04:40:48.220Z,0.00
2018-02-23T04:41:48.253Z,0.00
2018-02-23T04:42:48.244Z,0.00
2018-02-23T04:43:48.263Z,0.00
2018-02-23T04:44:48.310Z,0.00
2018-02-23T04:45:48.287Z,0.00
2018-02-23T04:46:48.292Z,0.00
2018-02-23T04:47:48.306Z,0.00
2018-02-23T04:48:48.321Z,0.00
2018-02-23T04:49:48.349Z,0.00
2018-02-23T04:50:48.362Z,0.00
2018-02-23T04:51:48.354Z,0.00
2018-02-23T04:52:48.371Z,0.00
2018-02-23T04:53:48.376Z,0.00
2018-02-23T04:54:48.389Z,0.00
2018-02-23T04:55:48.428Z,0.00
2018-02-23T04:56:48.424Z,0.00
2018-02-23T04:57:48.425Z,0.00
2018-02-23T04:58:48.444Z,0.00
2018-02-23T04:59:48.456Z,0.00
2018-02-23T05:00:48.467Z,0.00
2018-02-23T05:01:48.531Z,0.00
2018-02-23T05:02:48.488Z,0.00
2018-02-23T05:03:48.499Z,0.00
2018-02-23T05:04:48.509Z,0.00
2018-02-23T05:05:48.523Z,0.00
2018-02-23T05:06:48.542Z,0.00
2018-02-23T05:07:48.570Z,0.00
2018-02-23T05:08:48.558Z,0.00
2018-02-23T05:09:48.571Z,0.00
2018-02-23T05:10:48.623Z,0.00
2018-02-23T05:11:48.614Z,0.00
2018-02-23T05:12:48.623Z,0.00
2018-02-23T05:13:48.618Z,0.00
2018-02-23T05:14:48.633Z,0.00
2018-02-23T05:15:48.647Z,0.00
2018-02-23T05:16:48.653Z,0.00
2018-02-23T05:17:48.688Z,0.00
2018-02-23T05:18:48.688Z,0.00
2018-02-23T05:19:48.695Z,0.00
2018-02-23T05:20:48.702Z,0.00
2018-02-23T05:21:48.716Z,0.00
2018-02-23T05:22:48.746Z,0.00
2018-02-23T05:23:48.743Z,0.00
2018-02-23T05:24:48.754Z,0.00
2018-02-23T05:25:48.768Z,0.00
2018-02-23T05:26:48.784Z,0.00
2018-02-23T05:27:48.820Z,0.00
2018-02-23T05:28:48.815Z,0.00
2018-02-23T05:29:48.840Z,0.00
2018-02-23T05:30:48.864Z,0.00
2018-02-23T05:31:48.839Z,0.00
2018-02-23T05:32:48.853Z,0.00
2018-02-23T05:33:48.868Z,0.00
2018-02-23T05:34:48.874Z,0.00
2018-02-23T05:35:48.925Z,0.00
2018-02-23T05:36:48.899Z,0.00
2018-02-23T05:37:48.911Z,0.00
2018-02-23T05:38:48.929Z,0.00
2018-02-23T05:39:48.939Z,0.00
2018-02-23T05:40:48.953Z,0.00
2018-02-23T05:41:48.983Z,0.00
2018-02-23T05:42:49.048Z,0.00
2018-02-23T05:43:48.988Z,0.00
2018-02-23T05:44:48.996Z,0.00
2018-02-23T05:45:49.013Z,0.00
2018-02-23T05:46:49.026Z,0.00
2018-02-23T05:47:49.069Z,0.00
2018-02-23T05:48:49.050Z,0.00
2018-02-23T05:49:49.059Z,0.00
2018-02-23T05:50:49.115Z,0.00
2018-02-23T05:51:49.093Z,0.00
2018-02-23T05:52:49.121Z,0.00
2018-02-23T05:53:49.138Z,0.00
2018-02-23T05:54:49.120Z,0.00
2018-02-23T05:55:49.135Z,0.00
2018-02-23T05:56:49.149Z,0.00
2018-02-23T05:57:49.153Z,0.00
2018-02-23T05:58:49.188Z,0.00
2018-02-23T05:59:49.177Z,0.00
2018-02-23T06:00:49.191Z,0.00
2018-02-23T06:01:49.208Z,0.00
2018-02-23T06:02:49.234Z,4.00
2018-02-23T06:03:49.231Z,0.00
2018-02-23T06:04:49.244Z,4.00
2018-02-23T06:05:49.249Z,4.00
2018-02-23T06:06:49.263Z,0.00
2018-02-23T06:07:49.306Z,4.00
2018-02-23T06:08:49.296Z,4.00
2018-02-23T06:09:49.301Z,0.00
2018-02-23T06:10:49.309Z,4.00
2018-02-23T06:11:49.328Z,4.00
2018-02-23T06:12:49.366Z,4.00
2018-02-23T06:13:49.354Z,8.00
2018-02-23T06:14:49.380Z,4.00
2018-02-23T06:15:49.377Z,4.00
2018-02-23T06:16:49.406Z,4.00
2018-02-23T06:17:56.356Z,4.00
2018-02-23T06:18:49.412Z,8.00
2018-02-23T06:19:49.422Z,4.00
2018-02-23T06:20:49.433Z,8.00
2018-02-23T06:21:49.470Z,8.00
2018-02-23T06:22:49.461Z,8.00
2018-02-23T06:23:49.471Z,8.00
2018-02-23T06:24:49.484Z,8.00
2018-02-23T06:25:49.513Z,8.00
2018-02-23T06:26:49.515Z,8.00
2018-02-23T06:27:49.523Z,4.00
2018-02-23T06:28:49.532Z,8.00
2018-02-23T06:29:49.550Z,8.00
2018-02-23T06:30:49.575Z,8.00
2018-02-23T06:31:49.576Z,8.00
2018-02-23T06:32:49.586Z,8.00
2018-02-23T06:33:49.598Z,12.00
2018-02-23T06:34:49.611Z,8.00
2018-02-23T06:35:49.671Z,12.00
2018-02-23T06:36:49.636Z,12.00
2018-02-23T06:37:49.642Z,12.00
2018-02-23T06:38:49.663Z,12.00
2018-02-23T06:39:49.677Z,12.00
2018-02-23T06:40:49.709Z,16.00
2018-02-23T06:41:49.692Z,12.00
2018-02-23T06:42:49.743Z,16.00
2018-02-23T06:43:49.721Z,16.00
2018-02-23T06:44:49.734Z,16.00
2018-02-23T06:45:49.742Z,16.00
2018-02-23T06:46:49.757Z,16.00
2018-02-23T06:47:49.805Z,16.00
2018-02-23T06:48:49.780Z,16.00
2018-02-23T06:49:49.794Z,16.00
2018-02-23T06:50:49.806Z,16.00
2018-02-23T06:51:49.816Z,20.00
2018-02-23T06:52:49.832Z,20.00
2018-02-23T06:53:49.902Z,20.00
2018-02-23T06:54:49.855Z,16.00
2018-02-23T06:55:49.875Z,16.00
2018-02-23T06:56:49.880Z,16.00
2018-02-23T06:57:49.916Z,20.00
2018-02-23T06:58:49.902Z,16.00
2018-02-23T06:59:49.912Z,20.00
2018-02-23T07:00:49.942Z,20.00
2018-02-23T07:01:49.937Z,20.00
2018-02-23T07:02:49.971Z,20.00
2018-02-23T07:03:49.973Z,20.00
2018-02-23T07:04:49.982Z,24.00
2018-02-23T07:05:50.012Z,20.00
2018-02-23T07:06:50.000Z,24.00
2018-02-23T07:07:50.036Z,20.00
2018-02-23T07:08:50.026Z,24.00
2018-02-23T07:09:50.043Z,24.00
2018-02-23T07:10:50.066Z,24.00
2018-02-23T07:11:50.065Z,24.00
2018-02-23T07:12:50.109Z,28.00
2018-02-23T07:13:50.090Z,32.00
2018-02-23T07:14:50.115Z,32.00
2018-02-23T07:15:50.114Z,32.00
2018-02-23T07:16:50.151Z,32.00
2018-02-23T07:17:50.163Z,36.00
2018-02-23T07:18:50.149Z,32.00
2018-02-23T07:19:50.169Z,32.00
2018-02-23T07:20:50.201Z,40.00
2018-02-23T07:21:50.184Z,40.00
2018-02-23T07:22:50.219Z,40.00
2018-02-23T07:23:50.254Z,40.00
2018-02-23T07:24:50.223Z,44.00
2018-02-23T07:25:50.235Z,40.00
2018-02-23T07:26:50.252Z,44.00
2018-02-23T07:27:50.272Z,40.00
2018-02-23T07:28:50.283Z,40.00
2018-02-23T07:29:50.308Z,44.00
2018-02-23T07:30:50.302Z,44.00
2018-02-23T07:31:50.353Z,40.00
2018-02-23T07:32:50.344Z,40.00
2018-02-23T07:33:50.335Z,44.00
2018-02-23T07:34:50.348Z,44.00
2018-02-23T07:35:50.364Z,44.00
2018-02-23T07:36:50.393Z,44.00
2018-02-23T07:37:50.422Z,40.00
2018-02-23T07:38:50.397Z,40.00
2018-02-23T07:39:50.408Z,36.00
2018-02-23T07:40:50.423Z,40.00
2018-02-23T07:41:50.434Z,40.00
2018-02-23T07:42:50.480Z,36.00
2018-02-23T07:43:50.455Z,36.00
2018-02-23T07:44:50.469Z,36.00
2018-02-23T07:45:50.483Z,36.00
2018-02-23T07:46:50.496Z,36.00
2018-02-23T07:47:50.531Z,36.00
2018-02-23T07:48:50.521Z,40.00
2018-02-23T07:49:50.530Z,36.00
2018-02-23T07:50:50.547Z,36.00
2018-02-23T07:51:50.555Z,36.00
2018-02-23T07:52:50.573Z,40.00
2018-02-23T07:53:50.687Z,36.00
2018-02-23T07:54:50.667Z,40.00
2018-02-23T07:55:50.607Z,40.00
2018-02-23T07:56:50.618Z,44.00
2018-02-23T07:57:50.651Z,40.00
2018-02-23T07:58:51.318Z,40.00
2018-02-23T07:59:50.693Z,40.00
2018-02-23T08:00:50.670Z,48.00
2018-02-23T08:01:50.684Z,44.00
2018-02-23T08:02:50.690Z,48.00
2018-02-23T08:03:50.707Z,48.00
2018-02-23T08:04:50.727Z,52.00
2018-02-23T08:05:50.749Z,52.00
2018-02-23T08:06:50.742Z,56.00
2018-02-23T08:07:50.802Z,56.00
2018-02-23T08:08:50.775Z,56.00
2018-02-23T08:09:50.777Z,56.00
2018-02-23T08:10:50.813Z,56.00
2018-02-23T08:11:50.802Z,60.00
2018-02-23T08:12:50.830Z,60.00
2018-02-23T08:13:50.833Z,56.00
2018-02-23T08:14:50.841Z,56.00
2018-02-23T08:15:50.864Z,60.00
2018-02-23T08:16:50.875Z,60.00
2018-02-23T08:17:50.939Z,60.00
2018-02-23T08:18:50.893Z,60.00
2018-02-23T08:19:50.905Z,64.00
2018-02-23T08:20:50.936Z,64.00
2018-02-23T08:21:50.932Z,64.00
2018-02-23T08:22:50.965Z,64.00
2018-02-23T08:23:51.004Z,64.00
2018-02-23T08:24:50.970Z,64.00
2018-02-23T08:25:51.074Z,64.00
2018-02-23T08:26:50.990Z,64.00
2018-02-23T08:27:51.041Z,68.00
2018-02-23T08:28:51.021Z,68.00
2018-02-23T08:29:51.030Z,68.00
2018-02-23T08:30:51.053Z,72.00
2018-02-23T08:31:51.060Z,72.00
2018-02-23T08:32:51.102Z,72.00
2018-02-23T08:33:51.082Z,72.00
2018-02-23T08:34:51.096Z,76.00
2018-02-23T08:35:51.098Z,80.00
2018-02-23T08:36:51.120Z,80.00
2018-02-23T08:37:51.162Z,84.00
2018-02-23T08:38:51.158Z,88.00
2018-02-23T08:39:51.172Z,88.00
2018-02-23T08:40:51.161Z,88.00
2018-02-23T08:41:51.177Z,92.00
2018-02-23T08:42:51.228Z,96.00
2018-02-23T08:43:51.206Z,100.00
2018-02-23T08:44:51.217Z,104.00
2018-02-23T08:45:51.226Z,104.00
2018-02-23T08:46:51.277Z,116.00
2018-02-23T08:47:51.312Z,120.00
2018-02-23T08:48:51.265Z,120.00
2018-02-23T08:49:51.280Z,124.00
2018-02-23T08:50:51.291Z,128.00
2018-02-23T08:51:51.304Z,132.00
2018-02-23T08:52:51.325Z,136.00
2018-02-23T08:53:51.365Z,136.00
2018-02-23T08:54:51.339Z,144.00
2018-02-23T08:55:51.354Z,144.00
2018-02-23T08:56:51.372Z,144.00
2018-02-23T08:57:51.378Z,140.00
2018-02-23T08:58:51.410Z,140.00
2018-02-23T08:59:51.403Z,136.00
2018-02-23T09:00:51.422Z,132.00
2018-02-23T09:01:51.428Z,128.00
2018-02-23T09:02:51.461Z,124.00
2018-02-23T09:03:51.456Z,124.00
2018-02-23T09:04:51.469Z,124.00
2018-02-23T09:05:51.503Z,124.00
2018-02-23T09:06:51.505Z,120.00
2018-02-23T09:07:51.506Z,116.00
2018-02-23T09:08:51.537Z,108.00
2018-02-23T09:09:51.528Z,104.00
2018-02-23T09:10:51.563Z,104.00
2018-02-23T09:11:51.548Z,104.00
2018-02-23T09:12:51.570Z,104.00
2018-02-23T09:13:51.577Z,104.00
2018-02-23T09:14:51.587Z,104.00
2018-02-23T09:15:51.623Z,104.00
2018-02-23T09:16:51.611Z,108.00
2018-02-23T09:17:51.659Z,108.00
2018-02-23T09:18:51.642Z,108.00
2018-02-23T09:19:51.654Z,112.00
2018-02-23T09:20:51.667Z,116.00
2018-02-23T09:21:51.679Z,116.00
2018-02-23T09:22:51.970Z,120.00
2018-02-23T09:23:51.969Z,120.00
2018-02-23T09:24:52.088Z,128.00
2018-02-23T09:25:51.882Z,128.00
2018-02-23T09:26:51.944Z,132.00
2018-02-23T09:27:51.964Z,136.00
2018-02-23T09:28:51.978Z,136.00
2018-02-23T09:29:51.963Z,140.00
2018-02-23T09:30:52.105Z,148.00
2018-02-23T09:31:52.031Z,152.00
2018-02-23T09:32:52.001Z,152.00
2018-02-23T09:33:51.824Z,152.00
2018-02-23T09:34:51.954Z,148.00
2018-02-23T09:35:52.448Z,148.00
2018-02-23T09:36:52.127Z,148.00
2018-02-23T09:37:52.183Z,148.00
2018-02-23T09:38:52.033Z,148.00
2018-02-23T09:39:52.046Z,136.00
2018-02-23T09:40:52.076Z,136.00
2018-02-23T09:41:52.021Z,136.00
2018-02-23T09:42:52.124Z,132.00
2018-02-23T09:43:52.113Z,124.00
2018-02-23T09:44:52.092Z,116.00
2018-02-23T09:45:51.974Z,112.00
2018-02-23T09:46:51.992Z,112.00
2018-02-23T09:47:52.002Z,112.00
2018-02-23T09:48:52.046Z,112.00
2018-02-23T09:49:52.026Z,112.00
2018-02-23T09:50:52.044Z,116.00
2018-02-23T09:51:52.057Z,120.00
2018-02-23T09:52:52.084Z,120.00
2018-02-23T09:53:52.078Z,124.00
2018-02-23T09:54:52.091Z,128.00
2018-02-23T09:55:52.127Z,132.00
2018-02-23T09:56:52.120Z,136.00
2018-02-23T09:57:52.153Z,140.00
2018-02-23T09:58:52.138Z,148.00
2018-02-23T09:59:52.161Z,148.00
2018-02-23T10:00:52.174Z,152.00
2018-02-23T10:01:52.174Z,156.00
2018-02-23T10:02:52.233Z,160.00
2018-02-23T10:03:52.200Z,160.00
2018-02-23T10:04:52.216Z,160.00
2018-02-23T10:05:52.231Z,160.00
2018-02-23T10:06:52.238Z,160.00
2018-02-23T10:07:52.288Z,160.00
2018-02-23T10:08:52.268Z,164.00
2018-02-23T10:09:52.285Z,164.00
2018-02-23T10:10:52.351Z,164.00
2018-02-23T10:11:52.310Z,168.00
2018-02-23T10:12:52.424Z,172.00
2018-02-23T10:13:52.332Z,172.00
2018-02-23T10:14:52.343Z,168.00
2018-02-23T10:15:52.355Z,168.00
2018-02-23T10:16:52.408Z,168.00
2018-02-23T10:17:52.398Z,164.00
2018-02-23T10:18:52.393Z,168.00
2018-02-23T10:19:52.406Z,168.00
2018-02-23T10:20:52.445Z,168.00
2018-02-23T10:21:52.430Z,168.00
2018-02-23T10:22:52.465Z,168.00
2018-02-23T10:23:52.456Z,160.00
2018-02-23T10:24:52.473Z,152.00
2018-02-23T10:25:52.500Z,148.00
2018-02-23T10:26:52.495Z,144.00
2018-02-23T10:27:52.507Z,140.00
2018-02-23T10:28:52.516Z,140.00
2018-02-23T10:29:52.530Z,140.00
2018-02-23T10:30:52.569Z,136.00
2018-02-23T10:31:52.558Z,132.00
2018-02-23T10:32:52.575Z,140.00
2018-02-23T10:33:53.482Z,140.00
2018-02-23T10:34:52.593Z,148.00
2018-02-23T10:35:52.624Z,144.00
2018-02-23T10:36:52.645Z,144.00
2018-02-23T10:37:52.634Z,144.00
2018-02-23T10:38:52.642Z,140.00
2018-02-23T10:39:52.662Z,136.00
2018-02-23T10:40:52.674Z,140.00
2018-02-23T10:41:52.700Z,140.00
2018-02-23T10:42:52.696Z,140.00
2018-02-23T10:43:52.714Z,136.00
2018-02-23T10:44:52.723Z,136.00
2018-02-23T10:45:52.733Z,140.00
2018-02-23T10:46:52.785Z,140.00
2018-02-23T10:47:52.791Z,136.00
2018-02-23T10:48:52.772Z,136.00
2018-02-23T10:49:52.786Z,132.00
2018-02-23T10:50:52.865Z,128.00
2018-02-23T10:51:52.921Z,120.00
2018-02-23T10:52:53.002Z,108.00
2018-02-23T10:53:52.848Z,112.00
2018-02-23T10:54:52.851Z,120.00
2018-02-23T10:55:52.893Z,120.00
2018-02-23T10:56:52.910Z,120.00
2018-02-23T10:57:52.899Z,120.00
2018-02-23T10:58:52.899Z,124.00
2018-02-23T10:59:52.915Z,128.00
2018-02-23T11:00:52.979Z,120.00
2018-02-23T11:01:52.998Z,148.00
2018-02-23T11:02:52.989Z,156.00
2018-02-23T11:03:53.016Z,164.00
2018-02-23T11:04:53.029Z,172.00
2018-02-23T11:05:53.051Z,172.00
2018-02-23T11:06:53.092Z,180.00
2018-02-23T11:07:53.011Z,180.00
2018-02-23T11:08:53.039Z,180.00
2018-02-23T11:09:53.039Z,180.00
2018-02-23T11:10:53.104Z,172.00
2018-02-23T11:11:53.284Z,168.00
2018-02-23T11:12:53.201Z,168.00
2018-02-23T11:13:53.090Z,164.00
2018-02-23T11:14:55.130Z,160.00
2018-02-23T11:15:53.115Z,156.00
2018-02-23T11:16:53.232Z,148.00
2018-02-23T11:17:53.158Z,144.00
2018-02-23T11:18:53.150Z,144.00
2018-02-23T11:19:53.205Z,144.00
2018-02-23T11:20:53.182Z,144.00
2018-02-23T11:21:53.197Z,144.00
2018-02-23T11:22:53.253Z,144.00
2018-02-23T11:23:53.252Z,140.00
2018-02-23T11:24:53.226Z,136.00
2018-02-23T11:25:53.286Z,132.00
2018-02-23T11:26:53.251Z,132.00
2018-02-23T11:27:53.314Z,132.00
2018-02-23T11:28:53.329Z,132.00
2018-02-23T11:29:53.349Z,128.00
2018-02-23T11:30:53.326Z,132.00
2018-02-23T11:31:53.375Z,132.00
2018-02-23T11:32:53.422Z,132.00
2018-02-23T11:33:53.524Z,132.00
2018-02-23T11:34:53.490Z,132.00
2018-02-23T11:35:53.389Z,120.00
2018-02-23T11:36:53.413Z,108.00
2018-02-23T11:37:53.390Z,104.00
2018-02-23T11:38:53.465Z,104.00
2018-02-23T11:39:53.445Z,104.00
2018-02-23T11:40:53.468Z,108.00
2018-02-23T11:41:53.447Z,108.00
2018-02-23T11:42:53.464Z,108.00
2018-02-23T11:43:53.466Z,112.00
2018-02-23T11:44:53.480Z,112.00
2018-02-23T11:47:33.555Z,40.00
2018-02-23T11:48:33.577Z,40.00
2018-02-23T11:49:33.640Z,40.00
2018-02-23T11:50:33.766Z,44.00
2018-02-23T11:51:33.602Z,40.00
2018-02-23T11:52:33.714Z,40.00
2018-02-23T11:53:33.677Z,40.00
2018-02-23T11:54:33.687Z,40.00
2018-02-23T11:55:33.733Z,40.00
2018-02-23T11:56:33.692Z,40.00
2018-02-23T11:57:33.695Z,44.00
2018-02-23T11:58:33.714Z,48.00
2018-02-23T11:59:33.732Z,48.00
2018-02-23T12:00:33.722Z,48.00
2018-02-23T12:01:33.761Z,48.00
2018-02-23T12:02:33.752Z,48.00
2018-02-23T12:03:33.789Z,44.00
2018-02-23T12:04:33.841Z,48.00
2018-02-23T12:05:33.807Z,44.00
2018-02-23T12:06:34.149Z,44.00
2018-02-23T12:07:33.899Z,40.00
2018-02-23T12:08:33.883Z,40.00
2018-02-23T12:09:33.878Z,40.00
2018-02-23T12:10:33.921Z,40.00
2018-02-23T12:11:33.961Z,40.00
2018-02-23T12:12:33.949Z,40.00
2018-02-23T12:13:34.074Z,36.00
2018-02-23T12:14:34.071Z,36.00
2018-02-23T12:15:34.261Z,32.00
2018-02-23T12:16:34.099Z,36.00
2018-02-23T12:17:34.048Z,36.00
2018-02-23T12:18:34.430Z,24.00
2018-02-23T12:19:34.090Z,40.00
2018-02-23T12:20:34.334Z,36.00
2018-02-23T12:21:34.129Z,36.00
2018-02-23T12:22:34.149Z,40.00
2018-02-23T12:23:34.223Z,36.00
2018-02-23T12:24:34.228Z,36.00
2018-02-23T12:25:34.280Z,40.00
2018-02-23T12:26:34.238Z,40.00
2018-02-23T12:27:34.565Z,36.00
2018-02-23T12:28:34.304Z,36.00
2018-02-23T12:29:34.306Z,36.00
2018-02-23T12:30:34.362Z,36.00
2018-02-23T12:31:34.371Z,40.00
2018-02-23T12:32:34.658Z,36.00
2018-02-23T12:33:34.703Z,36.00
2018-02-23T12:34:34.458Z,36.00
2018-02-23T12:35:34.455Z,40.00
2018-02-23T12:36:34.697Z,36.00
2018-02-23T12:37:34.653Z,36.00
2018-02-23T12:38:34.550Z,36.00
2018-02-23T12:39:34.527Z,36.00
2018-02-23T12:40:34.575Z,28.00
2018-02-23T12:41:34.592Z,32.00
2018-02-23T12:42:34.580Z,28.00
2018-02-23T12:43:34.694Z,28.00
2018-02-23T12:44:34.629Z,28.00
2018-02-23T12:45:34.699Z,28.00
2018-02-23T12:46:34.685Z,28.00
2018-02-23T12:47:34.707Z,28.00
2018-02-23T12:48:34.731Z,28.00
2018-02-23T12:49:34.751Z,28.00
2018-02-23T12:50:34.795Z,28.00
2018-02-23T12:51:34.793Z,28.00
2018-02-23T12:52:34.814Z,28.00
2018-02-23T12:53:34.856Z,24.00
2018-02-23T12:54:34.863Z,28.00
2018-02-23T12:55:34.918Z,28.00
2018-02-23T12:56:34.954Z,28.00
2018-02-23T12:57:34.930Z,28.00
2018-02-23T12:58:34.961Z,24.00
2018-02-23T12:59:34.975Z,24.00
2018-02-23T13:00:35.026Z,24.00
2018-02-23T13:01:35.028Z,24.00
2018-02-23T13:02:35.045Z,28.00
2018-02-23T13:03:35.069Z,24.00
2018-02-23T13:04:35.087Z,24.00
2018-02-23T13:05:35.135Z,24.00
2018-02-23T13:06:35.134Z,24.00
2018-02-23T13:07:35.158Z,24.00
2018-02-23T13:08:35.194Z,20.00
2018-02-23T13:09:35.222Z,24.00
2018-02-23T13:10:35.223Z,20.00
2018-02-23T13:11:35.282Z,20.00
2018-02-23T13:12:35.268Z,20.00
2018-02-23T13:13:35.293Z,20.00